sensor_id;sensor_type;location;lat;lon;timestamp;temperature;humidity
73939;DHT22;62291;47.554;8.504;2023-05-10T00:00:30;13.60;99.90
73939;DHT22;62291;47.554;8.504;2023-05-10T00:02:56;13.60;99.90
73939;DHT22;62291;47.554;8.504;2023-05-10T00:05:22;13.60;99.90
73939;DHT22;62291;47.554;8.504;2023-05-10T00:07:47;13.60;99.90
73939;DHT22;62291;47.554;8.504;2023-05-10T00:10:13;13.60;99.90
73939;DHT22;62291;47.554;8.504;2023-05-10T00:12:38;13.60;99.90
73939;DHT22;62291;47.554;8.504;2023-05-10T00:15:05;13.60;99.90
73939;DHT22;62291;47.554;8.504;2023-05-10T00:17:31;13.60;99.90
73939;DHT22;62291;47.554;8.504;2023-05-10T00:19:56;13.60;99.90
73939;DHT22;62291;47.554;8.504;2023-05-10T00:22:22;13.60;99.90
73939;DHT22;62291;47.554;8.504;2023-05-10T00:24:48;13.60;99.90
73939;DHT22;62291;47.554;8.504;2023-05-10T00:27:13;13.50;99.90
73939;DHT22;62291;47.554;8.504;2023-05-10T00:29:39;13.60;99.90
73939;DHT22;62291;47.554;8.504;2023-05-10T00:32:05;13.60;99.90
73939;DHT22;62291;47.554;8.504;2023-05-10T00:34:31;13.60;99.90
73939;DHT22;62291;47.554;8.504;2023-05-10T00:36:56;13.50;99.90
73939;DHT22;62291;47.554;8.504;2023-05-10T00:39:22;13.50;99.90
73939;DHT22;62291;47.554;8.504;2023-05-10T00:41:47;13.50;99.90
73939;DHT22;62291;47.554;8.504;2023-05-10T00:44:13;13.50;99.90
73939;DHT22;62291;47.554;8.504;2023-05-10T00:46:39;13.50;99.90
73939;DHT22;62291;47.554;8.504;2023-05-10T00:49:04;13.50;99.90
73939;DHT22;62291;47.554;8.504;2023-05-10T00:51:30;13.50;99.90
73939;DHT22;62291;47.554;8.504;2023-05-10T00:53:56;13.50;99.90
73939;DHT22;62291;47.554;8.504;2023-05-10T00:56:22;13.50;99.90
73939;DHT22;62291;47.554;8.504;2023-05-10T00:58:49;13.50;99.90
73939;DHT22;62291;47.554;8.504;2023-05-10T01:01:15;13.50;99.90
73939;DHT22;62291;47.554;8.504;2023-05-10T01:03:40;13.40;99.90
73939;DHT22;62291;47.554;8.504;2023-05-10T01:06:07;13.50;99.90
73939;DHT22;62291;47.554;8.504;2023-05-10T01:08:32;13.50;99.90
73939;DHT22;62291;47.554;8.504;2023-05-10T01:10:58;13.50;99.90
73939;DHT22;62291;47.554;8.504;2023-05-10T01:13:36;13.50;99.90
73939;DHT22;62291;47.554;8.504;2023-05-10T01:16:03;13.50;99.90
73939;DHT22;62291;47.554;8.504;2023-05-10T01:18:36;13.50;99.90
73939;DHT22;62291;47.554;8.504;2023-05-10T01:23:55;13.50;99.90
73939;DHT22;62291;47.554;8.504;2023-05-10T01:26:51;13.50;99.90
73939;DHT22;62291;47.554;8.504;2023-05-10T01:34:27;13.40;99.90
73939;DHT22;62291;47.554;8.504;2023-05-10T01:37:02;13.30;99.90
73939;DHT22;62291;47.554;8.504;2023-05-10T01:42:26;13.30;99.90
73939;DHT22;62291;47.554;8.504;2023-05-10T01:48:05;13.40;99.90
73939;DHT22;62291;47.554;8.504;2023-05-10T01:50:28;13.30;99.90
73939;DHT22;62291;47.554;8.504;2023-05-10T01:52:55;13.30;99.90
73939;DHT22;62291;47.554;8.504;2023-05-10T01:55:23;13.30;99.90
73939;DHT22;62291;47.554;8.504;2023-05-10T01:57:51;13.30;99.90
73939;DHT22;62291;47.554;8.504;2023-05-10T02:00:18;13.30;99.90
73939;DHT22;62291;47.554;8.504;2023-05-10T02:02:45;13.30;99.90
73939;DHT22;62291;47.554;8.504;2023-05-10T02:05:12;13.30;99.90
73939;DHT22;62291;47.554;8.504;2023-05-10T02:07:38;13.30;99.90
73939;DHT22;62291;47.554;8.504;2023-05-10T02:10:04;13.30;99.90
73939;DHT22;62291;47.554;8.504;2023-05-10T02:12:31;13.30;99.90
73939;DHT22;62291;47.554;8.504;2023-05-10T02:14:57;13.20;99.90
73939;DHT22;62291;47.554;8.504;2023-05-10T02:17:24;13.20;99.90
73939;DHT22;62291;47.554;8.504;2023-05-10T02:19:50;13.20;99.90
73939;DHT22;62291;47.554;8.504;2023-05-10T02:22:16;13.20;99.90
73939;DHT22;62291;47.554;8.504;2023-05-10T02:24:43;13.20;99.90
73939;DHT22;62291;47.554;8.504;2023-05-10T02:27:10;13.20;99.90
73939;DHT22;62291;47.554;8.504;2023-05-10T02:29:36;13.20;99.90
73939;DHT22;62291;47.554;8.504;2023-05-10T02:32:02;13.20;99.90
73939;DHT22;62291;47.554;8.504;2023-05-10T02:34:28;13.20;99.90
73939;DHT22;62291;47.554;8.504;2023-05-10T02:36:55;13.10;99.90
73939;DHT22;62291;47.554;8.504;2023-05-10T02:39:21;13.10;99.90
73939;DHT22;62291;47.554;8.504;2023-05-10T02:41:48;13.10;99.90
73939;DHT22;62291;47.554;8.504;2023-05-10T02:44:20;13.10;99.90
73939;DHT22;62291;47.554;8.504;2023-05-10T02:46:45;13.10;99.90
73939;DHT22;62291;47.554;8.504;2023-05-10T02:49:12;13.20;99.90
73939;DHT22;62291;47.554;8.504;2023-05-10T02:51:40;13.20;99.90
73939;DHT22;62291;47.554;8.504;2023-05-10T02:54:11;13.10;99.90
73939;DHT22;62291;47.554;8.504;2023-05-10T02:56:40;13.10;99.90
73939;DHT22;62291;47.554;8.504;2023-05-10T02:59:07;13.00;99.90
73939;DHT22;62291;47.554;8.504;2023-05-10T03:01:33;13.00;99.90
73939;DHT22;62291;47.554;8.504;2023-05-10T03:03:59;13.00;99.90
73939;DHT22;62291;47.554;8.504;2023-05-10T03:06:24;12.90;99.90
73939;DHT22;62291;47.554;8.504;2023-05-10T03:08:50;12.90;99.90
73939;DHT22;62291;47.554;8.504;2023-05-10T03:11:32;12.90;99.90
73939;DHT22;62291;47.554;8.504;2023-05-10T03:16:45;12.90;99.90
73939;DHT22;62291;47.554;8.504;2023-05-10T03:19:16;12.90;99.90
73939;DHT22;62291;47.554;8.504;2023-05-10T03:21:43;12.90;99.90
73939;DHT22;62291;47.554;8.504;2023-05-10T03:24:12;12.90;99.90
73939;DHT22;62291;47.554;8.504;2023-05-10T03:26:40;12.90;99.90
73939;DHT22;62291;47.554;8.504;2023-05-10T03:29:08;12.80;99.90
73939;DHT22;62291;47.554;8.504;2023-05-10T03:31:34;12.80;99.90
73939;DHT22;62291;47.554;8.504;2023-05-10T03:34:00;12.90;99.90
73939;DHT22;62291;47.554;8.504;2023-05-10T03:36:25;12.80;99.90
73939;DHT22;62291;47.554;8.504;2023-05-10T03:38:51;12.80;99.90
73939;DHT22;62291;47.554;8.504;2023-05-10T03:41:16;12.80;99.90
73939;DHT22;62291;47.554;8.504;2023-05-10T03:43:42;12.80;99.90
73939;DHT22;62291;47.554;8.504;2023-05-10T03:46:08;12.80;99.90
73939;DHT22;62291;47.554;8.504;2023-05-10T03:48:33;12.80;99.90
73939;DHT22;62291;47.554;8.504;2023-05-10T03:50:59;12.80;99.90
73939;DHT22;62291;47.554;8.504;2023-05-10T03:53:25;12.80;99.90
73939;DHT22;62291;47.554;8.504;2023-05-10T03:55:50;12.80;99.90
73939;DHT22;62291;47.554;8.504;2023-05-10T03:58:16;12.80;99.90
73939;DHT22;62291;47.554;8.504;2023-05-10T04:00:41;12.90;99.90
73939;DHT22;62291;47.554;8.504;2023-05-10T04:03:10;12.80;99.90
73939;DHT22;62291;47.554;8.504;2023-05-10T04:05:36;12.80;99.90
73939;DHT22;62291;47.554;8.504;2023-05-10T04:08:02;12.80;99.90
73939;DHT22;62291;47.554;8.504;2023-05-10T04:10:27;12.80;99.90
73939;DHT22;62291;47.554;8.504;2023-05-10T04:12:53;12.80;99.90
73939;DHT22;62291;47.554;8.504;2023-05-10T04:15:18;12.90;99.90
73939;DHT22;62291;47.554;8.504;2023-05-10T04:17:44;12.90;99.90
73939;DHT22;62291;47.554;8.504;2023-05-10T04:20:10;12.90;99.90
73939;DHT22;62291;47.554;8.504;2023-05-10T04:22:36;12.90;99.90
73939;DHT22;62291;47.554;8.504;2023-05-10T04:25:01;13.00;99.90
73939;DHT22;62291;47.554;8.504;2023-05-10T04:27:27;13.10;99.90
73939;DHT22;62291;47.554;8.504;2023-05-10T04:29:52;13.10;99.90
73939;DHT22;62291;47.554;8.504;2023-05-10T04:32:18;13.10;99.90
73939;DHT22;62291;47.554;8.504;2023-05-10T04:34:44;13.10;99.90
73939;DHT22;62291;47.554;8.504;2023-05-10T04:37:09;13.10;99.90
73939;DHT22;62291;47.554;8.504;2023-05-10T04:39:35;13.10;99.90
73939;DHT22;62291;47.554;8.504;2023-05-10T04:42:01;13.10;99.90
73939;DHT22;62291;47.554;8.504;2023-05-10T04:44:28;13.10;99.90
73939;DHT22;62291;47.554;8.504;2023-05-10T04:46:53;13.10;99.90
73939;DHT22;62291;47.554;8.504;2023-05-10T04:49:19;13.10;99.90
73939;DHT22;62291;47.554;8.504;2023-05-10T04:51:45;13.10;99.90
73939;DHT22;62291;47.554;8.504;2023-05-10T04:54:10;13.10;99.90
73939;DHT22;62291;47.554;8.504;2023-05-10T04:56:36;13.20;99.90
73939;DHT22;62291;47.554;8.504;2023-05-10T04:59:01;13.10;99.90
73939;DHT22;62291;47.554;8.504;2023-05-10T05:01:27;13.20;99.90
73939;DHT22;62291;47.554;8.504;2023-05-10T05:03:53;13.20;99.90
73939;DHT22;62291;47.554;8.504;2023-05-10T05:06:19;13.30;99.90
73939;DHT22;62291;47.554;8.504;2023-05-10T05:08:46;13.20;99.90
73939;DHT22;62291;47.554;8.504;2023-05-10T05:11:11;13.20;99.90
73939;DHT22;62291;47.554;8.504;2023-05-10T05:13:37;13.20;99.90
73939;DHT22;62291;47.554;8.504;2023-05-10T05:16:03;13.20;99.90
73939;DHT22;62291;47.554;8.504;2023-05-10T05:18:28;13.30;99.90
73939;DHT22;62291;47.554;8.504;2023-05-10T05:20:54;13.30;99.90
73939;DHT22;62291;47.554;8.504;2023-05-10T05:23:19;13.20;99.90
73939;DHT22;62291;47.554;8.504;2023-05-10T05:25:46;13.20;99.90
73939;DHT22;62291;47.554;8.504;2023-05-10T05:28:11;13.20;99.90
73939;DHT22;62291;47.554;8.504;2023-05-10T05:30:37;13.30;99.90
73939;DHT22;62291;47.554;8.504;2023-05-10T05:33:03;13.30;99.90
73939;DHT22;62291;47.554;8.504;2023-05-10T05:35:28;13.30;99.90
73939;DHT22;62291;47.554;8.504;2023-05-10T05:37:54;13.40;99.90
73939;DHT22;62291;47.554;8.504;2023-05-10T05:40:19;13.40;99.90
73939;DHT22;62291;47.554;8.504;2023-05-10T05:42:45;13.40;99.90
73939;DHT22;62291;47.554;8.504;2023-05-10T05:45:11;13.50;99.90
73939;DHT22;62291;47.554;8.504;2023-05-10T05:47:38;13.50;99.90
73939;DHT22;62291;47.554;8.504;2023-05-10T05:50:04;13.60;99.90
73939;DHT22;62291;47.554;8.504;2023-05-10T05:52:30;13.60;99.90
73939;DHT22;62291;47.554;8.504;2023-05-10T05:54:55;13.60;99.90
73939;DHT22;62291;47.554;8.504;2023-05-10T05:57:21;13.70;99.90
73939;DHT22;62291;47.554;8.504;2023-05-10T05:59:46;13.70;99.90
73939;DHT22;62291;47.554;8.504;2023-05-10T06:02:12;13.70;99.90
73939;DHT22;62291;47.554;8.504;2023-05-10T06:04:38;13.80;99.90
73939;DHT22;62291;47.554;8.504;2023-05-10T06:07:03;13.80;99.90
73939;DHT22;62291;47.554;8.504;2023-05-10T06:09:29;13.80;99.90
73939;DHT22;62291;47.554;8.504;2023-05-10T06:11:54;13.70;99.90
73939;DHT22;62291;47.554;8.504;2023-05-10T06:14:20;13.70;99.90
73939;DHT22;62291;47.554;8.504;2023-05-10T06:16:46;13.70;99.90
73939;DHT22;62291;47.554;8.504;2023-05-10T06:19:11;13.70;99.90
73939;DHT22;62291;47.554;8.504;2023-05-10T06:21:37;13.90;99.90
73939;DHT22;62291;47.554;8.504;2023-05-10T06:24:03;14.00;99.90
73939;DHT22;62291;47.554;8.504;2023-05-10T06:26:28;14.00;99.90
73939;DHT22;62291;47.554;8.504;2023-05-10T06:28:54;14.00;99.90
73939;DHT22;62291;47.554;8.504;2023-05-10T06:31:19;13.90;99.90
73939;DHT22;62291;47.554;8.504;2023-05-10T06:33:45;14.00;99.90
73939;DHT22;62291;47.554;8.504;2023-05-10T06:36:10;14.10;99.90
73939;DHT22;62291;47.554;8.504;2023-05-10T06:38:36;14.20;99.90
73939;DHT22;62291;47.554;8.504;2023-05-10T06:41:01;14.10;99.90
73939;DHT22;62291;47.554;8.504;2023-05-10T06:43:27;14.00;99.90
73939;DHT22;62291;47.554;8.504;2023-05-10T06:45:54;13.90;99.90
73939;DHT22;62291;47.554;8.504;2023-05-10T06:48:19;14.00;99.90
73939;DHT22;62291;47.554;8.504;2023-05-10T06:50:45;14.10;99.90
73939;DHT22;62291;47.554;8.504;2023-05-10T06:53:10;14.10;99.90
73939;DHT22;62291;47.554;8.504;2023-05-10T06:55:37;14.10;99.90
73939;DHT22;62291;47.554;8.504;2023-05-10T06:58:02;14.10;99.90
73939;DHT22;62291;47.554;8.504;2023-05-10T07:00:28;14.10;99.90
73939;DHT22;62291;47.554;8.504;2023-05-10T07:02:54;14.30;99.90
73939;DHT22;62291;47.554;8.504;2023-05-10T07:05:20;14.40;99.90
73939;DHT22;62291;47.554;8.504;2023-05-10T07:07:45;14.50;99.90
73939;DHT22;62291;47.554;8.504;2023-05-10T07:10:11;14.60;99.90
73939;DHT22;62291;47.554;8.504;2023-05-10T07:12:37;14.70;99.90
73939;DHT22;62291;47.554;8.504;2023-05-10T07:15:03;14.60;99.90
73939;DHT22;62291;47.554;8.504;2023-05-10T07:17:29;14.50;99.90
73939;DHT22;62291;47.554;8.504;2023-05-10T07:19:55;14.50;99.90
73939;DHT22;62291;47.554;8.504;2023-05-10T07:22:20;14.40;99.90
73939;DHT22;62291;47.554;8.504;2023-05-10T07:24:46;14.50;99.90
73939;DHT22;62291;47.554;8.504;2023-05-10T07:27:11;14.60;99.90
73939;DHT22;62291;47.554;8.504;2023-05-10T07:29:38;14.70;99.90
73939;DHT22;62291;47.554;8.504;2023-05-10T07:32:04;14.70;99.90
73939;DHT22;62291;47.554;8.504;2023-05-10T07:34:30;14.60;99.90
73939;DHT22;62291;47.554;8.504;2023-05-10T07:36:59;14.60;99.90
73939;DHT22;62291;47.554;8.504;2023-05-10T07:39:25;14.60;99.90
73939;DHT22;62291;47.554;8.504;2023-05-10T07:41:51;14.50;99.90
73939;DHT22;62291;47.554;8.504;2023-05-10T07:44:16;14.30;99.90
73939;DHT22;62291;47.554;8.504;2023-05-10T07:46:44;14.30;99.90
73939;DHT22;62291;47.554;8.504;2023-05-10T07:49:09;14.40;99.90
73939;DHT22;62291;47.554;8.504;2023-05-10T07:51:35;14.50;99.90
73939;DHT22;62291;47.554;8.504;2023-05-10T07:54:01;14.50;99.90
73939;DHT22;62291;47.554;8.504;2023-05-10T07:56:28;14.50;99.90
73939;DHT22;62291;47.554;8.504;2023-05-10T07:58:57;14.70;99.90
73939;DHT22;62291;47.554;8.504;2023-05-10T08:01:23;15.10;99.90
73939;DHT22;62291;47.554;8.504;2023-05-10T08:03:48;15.40;99.90
73939;DHT22;62291;47.554;8.504;2023-05-10T08:06:14;15.50;99.90
73939;DHT22;62291;47.554;8.504;2023-05-10T08:08:40;15.60;99.90
73939;DHT22;62291;47.554;8.504;2023-05-10T08:11:06;15.70;99.90
73939;DHT22;62291;47.554;8.504;2023-05-10T08:13:32;15.90;99.90
73939;DHT22;62291;47.554;8.504;2023-05-10T08:15:57;15.90;99.90
73939;DHT22;62291;47.554;8.504;2023-05-10T08:18:23;15.90;99.90
73939;DHT22;62291;47.554;8.504;2023-05-10T08:20:48;15.80;99.90
73939;DHT22;62291;47.554;8.504;2023-05-10T08:23:14;15.90;99.90
73939;DHT22;62291;47.554;8.504;2023-05-10T08:25:39;15.80;99.90
73939;DHT22;62291;47.554;8.504;2023-05-10T08:28:05;16.00;99.90
73939;DHT22;62291;47.554;8.504;2023-05-10T08:30:31;15.90;99.90
73939;DHT22;62291;47.554;8.504;2023-05-10T08:32:56;15.90;99.90
73939;DHT22;62291;47.554;8.504;2023-05-10T08:35:22;16.10;99.90
73939;DHT22;62291;47.554;8.504;2023-05-10T08:37:47;16.40;99.90
73939;DHT22;62291;47.554;8.504;2023-05-10T08:40:13;16.60;99.90
73939;DHT22;62291;47.554;8.504;2023-05-10T08:42:40;17.00;99.90
73939;DHT22;62291;47.554;8.504;2023-05-10T08:45:08;17.40;99.90
73939;DHT22;62291;47.554;8.504;2023-05-10T08:47:35;17.50;99.90
73939;DHT22;62291;47.554;8.504;2023-05-10T08:50:02;17.60;99.90
73939;DHT22;62291;47.554;8.504;2023-05-10T08:52:28;17.90;99.90
73939;DHT22;62291;47.554;8.504;2023-05-10T08:54:55;17.80;99.90
73939;DHT22;62291;47.554;8.504;2023-05-10T08:57:20;17.60;99.90
73939;DHT22;62291;47.554;8.504;2023-05-10T08:59:46;17.10;99.90
73939;DHT22;62291;47.554;8.504;2023-05-10T09:02:12;17.00;99.90
73939;DHT22;62291;47.554;8.504;2023-05-10T09:04:38;16.80;99.90
73939;DHT22;62291;47.554;8.504;2023-05-10T09:07:03;16.80;99.90
73939;DHT22;62291;47.554;8.504;2023-05-10T09:09:29;16.90;99.90
73939;DHT22;62291;47.554;8.504;2023-05-10T09:11:55;16.90;99.90
73939;DHT22;62291;47.554;8.504;2023-05-10T09:14:20;16.90;99.90
73939;DHT22;62291;47.554;8.504;2023-05-10T09:16:47;17.10;99.90
73939;DHT22;62291;47.554;8.504;2023-05-10T09:19:12;17.20;99.90
73939;DHT22;62291;47.554;8.504;2023-05-10T09:21:38;17.10;99.90
73939;DHT22;62291;47.554;8.504;2023-05-10T09:24:04;17.10;99.90
73939;DHT22;62291;47.554;8.504;2023-05-10T09:26:30;17.10;99.90
73939;DHT22;62291;47.554;8.504;2023-05-10T09:28:56;17.30;99.90
73939;DHT22;62291;47.554;8.504;2023-05-10T09:31:22;17.30;99.90
73939;DHT22;62291;47.554;8.504;2023-05-10T09:33:49;17.30;99.90
73939;DHT22;62291;47.554;8.504;2023-05-10T09:36:15;17.40;99.90
73939;DHT22;62291;47.554;8.504;2023-05-10T09:41:19;17.70;99.90
73939;DHT22;62291;47.554;8.504;2023-05-10T09:43:45;17.60;99.90
73939;DHT22;62291;47.554;8.504;2023-05-10T09:46:11;17.70;99.90
73939;DHT22;62291;47.554;8.504;2023-05-10T09:48:44;17.80;99.90
73939;DHT22;62291;47.554;8.504;2023-05-10T09:51:10;17.60;99.90
73939;DHT22;62291;47.554;8.504;2023-05-10T09:53:36;17.30;99.90
73939;DHT22;62291;47.554;8.504;2023-05-10T09:56:01;17.10;99.90
73939;DHT22;62291;47.554;8.504;2023-05-10T09:58:27;17.00;99.90
73939;DHT22;62291;47.554;8.504;2023-05-10T10:00:53;16.80;99.90
73939;DHT22;62291;47.554;8.504;2023-05-10T10:03:19;16.70;99.90
73939;DHT22;62291;47.554;8.504;2023-05-10T10:05:45;16.70;99.90
73939;DHT22;62291;47.554;8.504;2023-05-10T10:08:12;16.70;99.90
73939;DHT22;62291;47.554;8.504;2023-05-10T10:10:37;16.60;99.90
73939;DHT22;62291;47.554;8.504;2023-05-10T10:13:05;16.70;99.90
73939;DHT22;62291;47.554;8.504;2023-05-10T10:15:31;16.90;99.90
73939;DHT22;62291;47.554;8.504;2023-05-10T10:17:57;17.00;99.90
73939;DHT22;62291;47.554;8.504;2023-05-10T10:20:23;17.20;99.90
73939;DHT22;62291;47.554;8.504;2023-05-10T10:22:50;17.20;99.90
73939;DHT22;62291;47.554;8.504;2023-05-10T10:25:16;17.40;99.90
73939;DHT22;62291;47.554;8.504;2023-05-10T10:35:20;17.90;99.90
73939;DHT22;62291;47.554;8.504;2023-05-10T10:37:47;17.90;99.90
73939;DHT22;62291;47.554;8.504;2023-05-10T10:40:31;18.00;99.90
73939;DHT22;62291;47.554;8.504;2023-05-10T10:42:57;18.20;99.90
73939;DHT22;62291;47.554;8.504;2023-05-10T10:45:25;18.20;99.90
73939;DHT22;62291;47.554;8.504;2023-05-10T10:50:43;18.20;99.90
73939;DHT22;62291;47.554;8.504;2023-05-10T10:53:11;18.20;99.90
73939;DHT22;62291;47.554;8.504;2023-05-10T10:55:44;18.20;99.90
73939;DHT22;62291;47.554;8.504;2023-05-10T10:58:12;18.20;99.90
73939;DHT22;62291;47.554;8.504;2023-05-10T11:00:53;18.30;99.90
73939;DHT22;62291;47.554;8.504;2023-05-10T11:03:33;18.40;99.90
73939;DHT22;62291;47.554;8.504;2023-05-10T11:05:59;18.40;99.90
73939;DHT22;62291;47.554;8.504;2023-05-10T11:08:27;18.30;99.90
73939;DHT22;62291;47.554;8.504;2023-05-10T11:15:53;18.20;99.90
73939;DHT22;62291;47.554;8.504;2023-05-10T11:18:31;18.20;99.90
73939;DHT22;62291;47.554;8.504;2023-05-10T11:20:57;18.10;99.30
73939;DHT22;62291;47.554;8.504;2023-05-10T11:23:28;18.10;99.90
73939;DHT22;62291;47.554;8.504;2023-05-10T11:25:54;18.10;98.70
73939;DHT22;62291;47.554;8.504;2023-05-10T11:28:20;17.90;99.40
73939;DHT22;62291;47.554;8.504;2023-05-10T11:30:45;17.80;98.90
73939;DHT22;62291;47.554;8.504;2023-05-10T11:33:15;17.80;99.20
73939;DHT22;62291;47.554;8.504;2023-05-10T11:35:41;17.90;99.90
73939;DHT22;62291;47.554;8.504;2023-05-10T11:38:07;17.90;99.90
73939;DHT22;62291;47.554;8.504;2023-05-10T11:40:33;17.80;99.20
73939;DHT22;62291;47.554;8.504;2023-05-10T11:42:59;17.80;99.00
73939;DHT22;62291;47.554;8.504;2023-05-10T11:45:24;17.70;98.50
73939;DHT22;62291;47.554;8.504;2023-05-10T11:47:51;17.60;98.70
73939;DHT22;62291;47.554;8.504;2023-05-10T11:50:17;17.40;99.00
73939;DHT22;62291;47.554;8.504;2023-05-10T11:52:42;17.50;98.70
73939;DHT22;62291;47.554;8.504;2023-05-10T11:55:08;17.70;99.90
73939;DHT22;62291;47.554;8.504;2023-05-10T11:57:34;17.90;98.80
73939;DHT22;62291;47.554;8.504;2023-05-10T12:00:00;17.90;98.50
73939;DHT22;62291;47.554;8.504;2023-05-10T12:02:28;17.90;98.20
73939;DHT22;62291;47.554;8.504;2023-05-10T12:04:54;18.10;97.70
73939;DHT22;62291;47.554;8.504;2023-05-10T12:07:20;18.30;97.20
73939;DHT22;62291;47.554;8.504;2023-05-10T12:12:37;18.30;96.80
73939;DHT22;62291;47.554;8.504;2023-05-10T12:15:03;18.50;97.30
73939;DHT22;62291;47.554;8.504;2023-05-10T12:17:29;18.30;97.70
73939;DHT22;62291;47.554;8.504;2023-05-10T12:19:58;18.10;96.80
73939;DHT22;62291;47.554;8.504;2023-05-10T12:22:24;18.20;98.00
73939;DHT22;62291;47.554;8.504;2023-05-10T12:24:50;18.20;97.60
73939;DHT22;62291;47.554;8.504;2023-05-10T12:27:15;18.20;97.20
73939;DHT22;62291;47.554;8.504;2023-05-10T12:29:41;18.30;97.60
73939;DHT22;62291;47.554;8.504;2023-05-10T12:32:09;18.40;96.40
73939;DHT22;62291;47.554;8.504;2023-05-10T12:34:34;18.60;96.70
73939;DHT22;62291;47.554;8.504;2023-05-10T12:37:04;18.90;99.20
73939;DHT22;62291;47.554;8.504;2023-05-10T12:39:43;18.90;97.50
73939;DHT22;62291;47.554;8.504;2023-05-10T12:42:08;19.00;97.00
73939;DHT22;62291;47.554;8.504;2023-05-10T12:44:34;19.10;96.00
73939;DHT22;62291;47.554;8.504;2023-05-10T12:46:59;19.00;95.60
73939;DHT22;62291;47.554;8.504;2023-05-10T12:49:25;19.00;97.30
73939;DHT22;62291;47.554;8.504;2023-05-10T12:51:50;18.80;96.50
73939;DHT22;62291;47.554;8.504;2023-05-10T12:54:16;18.60;95.90
73939;DHT22;62291;47.554;8.504;2023-05-10T12:56:41;18.70;96.90
73939;DHT22;62291;47.554;8.504;2023-05-10T12:59:07;18.90;96.50
73939;DHT22;62291;47.554;8.504;2023-05-10T13:01:33;18.90;96.00
73939;DHT22;62291;47.554;8.504;2023-05-10T13:03:59;18.90;96.60
73939;DHT22;62291;47.554;8.504;2023-05-10T13:06:25;19.10;97.40
73939;DHT22;62291;47.554;8.504;2023-05-10T13:08:51;19.10;95.40
73939;DHT22;62291;47.554;8.504;2023-05-10T13:11:17;19.20;96.00
73939;DHT22;62291;47.554;8.504;2023-05-10T13:13:44;19.40;94.80
73939;DHT22;62291;47.554;8.504;2023-05-10T13:16:10;19.60;95.50
73939;DHT22;62291;47.554;8.504;2023-05-10T13:18:36;19.70;97.00
73939;DHT22;62291;47.554;8.504;2023-05-10T13:21:01;19.90;96.10
73939;DHT22;62291;47.554;8.504;2023-05-10T13:23:29;19.70;95.00
73939;DHT22;62291;47.554;8.504;2023-05-10T13:25:54;19.50;94.30
73939;DHT22;62291;47.554;8.504;2023-05-10T13:28:20;19.30;94.40
73939;DHT22;62291;47.554;8.504;2023-05-10T13:30:45;18.80;94.90
73939;DHT22;62291;47.554;8.504;2023-05-10T13:33:11;18.50;95.40
73939;DHT22;62291;47.554;8.504;2023-05-10T13:35:37;18.50;95.40
73939;DHT22;62291;47.554;8.504;2023-05-10T13:38:02;18.60;97.00
73939;DHT22;62291;47.554;8.504;2023-05-10T13:40:28;18.50;95.90
73939;DHT22;62291;47.554;8.504;2023-05-10T13:42:53;18.50;96.20
73939;DHT22;62291;47.554;8.504;2023-05-10T13:45:19;18.60;96.30
73939;DHT22;62291;47.554;8.504;2023-05-10T13:47:44;18.60;96.90
73939;DHT22;62291;47.554;8.504;2023-05-10T13:50:10;18.50;95.00
73939;DHT22;62291;47.554;8.504;2023-05-10T13:52:36;18.50;95.70
73939;DHT22;62291;47.554;8.504;2023-05-10T13:55:01;18.70;97.00
73939;DHT22;62291;47.554;8.504;2023-05-10T13:57:27;18.50;95.90
73939;DHT22;62291;47.554;8.504;2023-05-10T13:59:54;18.60;96.10
73939;DHT22;62291;47.554;8.504;2023-05-10T14:02:19;18.90;98.30
73939;DHT22;62291;47.554;8.504;2023-05-10T14:04:45;18.90;96.50
73939;DHT22;62291;47.554;8.504;2023-05-10T14:07:11;19.00;96.40
73939;DHT22;62291;47.554;8.504;2023-05-10T14:09:36;18.90;94.50
73939;DHT22;62291;47.554;8.504;2023-05-10T14:12:02;18.80;95.50
73939;DHT22;62291;47.554;8.504;2023-05-10T14:14:27;18.80;96.10
73939;DHT22;62291;47.554;8.504;2023-05-10T14:16:54;18.80;96.10
73939;DHT22;62291;47.554;8.504;2023-05-10T14:19:20;18.90;95.90
73939;DHT22;62291;47.554;8.504;2023-05-10T14:21:45;18.70;96.20
73939;DHT22;62291;47.554;8.504;2023-05-10T14:24:11;18.50;95.60
73939;DHT22;62291;47.554;8.504;2023-05-10T14:26:37;18.40;94.70
73939;DHT22;62291;47.554;8.504;2023-05-10T14:29:02;18.60;95.50
73939;DHT22;62291;47.554;8.504;2023-05-10T14:31:28;18.50;95.00
73939;DHT22;62291;47.554;8.504;2023-05-10T14:33:55;18.50;95.90
73939;DHT22;62291;47.554;8.504;2023-05-10T14:36:21;18.70;96.00
73939;DHT22;62291;47.554;8.504;2023-05-10T14:38:46;18.70;97.60
73939;DHT22;62291;47.554;8.504;2023-05-10T14:41:12;18.70;94.80
73939;DHT22;62291;47.554;8.504;2023-05-10T14:43:39;18.50;96.50
73939;DHT22;62291;47.554;8.504;2023-05-10T14:46:05;18.60;96.20
73939;DHT22;62291;47.554;8.504;2023-05-10T14:48:31;18.70;95.50
73939;DHT22;62291;47.554;8.504;2023-05-10T14:50:56;18.70;95.90
73939;DHT22;62291;47.554;8.504;2023-05-10T14:53:22;18.60;95.10
73939;DHT22;62291;47.554;8.504;2023-05-10T14:55:48;18.50;96.50
73939;DHT22;62291;47.554;8.504;2023-05-10T14:58:13;18.30;95.50
73939;DHT22;62291;47.554;8.504;2023-05-10T15:00:40;18.20;96.10
73939;DHT22;62291;47.554;8.504;2023-05-10T15:03:05;18.40;96.70
73939;DHT22;62291;47.554;8.504;2023-05-10T15:05:31;18.50;96.10
73939;DHT22;62291;47.554;8.504;2023-05-10T15:07:56;18.40;96.00
73939;DHT22;62291;47.554;8.504;2023-05-10T15:10:22;18.30;95.20
73939;DHT22;62291;47.554;8.504;2023-05-10T15:12:48;18.40;94.20
73939;DHT22;62291;47.554;8.504;2023-05-10T15:15:13;18.50;94.70
73939;DHT22;62291;47.554;8.504;2023-05-10T15:17:39;18.30;94.80
73939;DHT22;62291;47.554;8.504;2023-05-10T15:20:04;17.90;95.30
73939;DHT22;62291;47.554;8.504;2023-05-10T15:22:30;17.80;95.30
73939;DHT22;62291;47.554;8.504;2023-05-10T15:24:57;17.60;95.40
73939;DHT22;62291;47.554;8.504;2023-05-10T15:27:23;17.60;95.70
73939;DHT22;62291;47.554;8.504;2023-05-10T15:29:48;17.50;95.60
73939;DHT22;62291;47.554;8.504;2023-05-10T15:32:14;17.40;96.20
73939;DHT22;62291;47.554;8.504;2023-05-10T15:34:40;17.50;97.10
73939;DHT22;62291;47.554;8.504;2023-05-10T15:37:06;17.50;97.80
73939;DHT22;62291;47.554;8.504;2023-05-10T15:39:31;17.50;96.30
73939;DHT22;62291;47.554;8.504;2023-05-10T15:41:57;17.20;96.10
73939;DHT22;62291;47.554;8.504;2023-05-10T15:44:23;17.10;96.30
73939;DHT22;62291;47.554;8.504;2023-05-10T15:46:49;17.00;97.50
73939;DHT22;62291;47.554;8.504;2023-05-10T15:49:15;17.00;97.30
73939;DHT22;62291;47.554;8.504;2023-05-10T15:51:40;16.80;96.80
73939;DHT22;62291;47.554;8.504;2023-05-10T15:54:06;16.70;97.30
73939;DHT22;62291;47.554;8.504;2023-05-10T15:56:32;16.80;97.20
73939;DHT22;62291;47.554;8.504;2023-05-10T15:58:58;17.00;97.20
73939;DHT22;62291;47.554;8.504;2023-05-10T16:01:24;17.00;97.30